Time;durP1;ratioP1;P1;durP2;ratioP2;P2;SDS_P1;SDS_P2;PMS_P1;PMS_P2;Temp;Humidity;BMP_temperature;BMP_pressure;BME280_temperature;BME280_humidity;BME280_pressure;Samples;Min_cycle;Max_cycle;Signal;HPM_P1;HPM_P2
2022/08/15 00:02:00;;;;;;;1.43;0.83;;;20.80;1.00;;;;;;4953663;28;20170;-89
2022/08/15 00:04:26;;;;;;;3.77;1.60;;;20.80;1.00;;;;;;4953068;28;20973;-88
2022/08/15 00:06:51;;;;;;;2.57;1.07;;;20.70;1.00;;;;;;4954845;28;20457;-91
2022/08/15 00:09:21;;;;;;;2.80;1.30;;;20.60;1.00;;;;;;4969968;28;20175;-92
2022/08/15 00:11:55;;;;;;;1.70;1.30;;;20.60;17.40;;;;;;4954820;28;20177;-92
2022/08/15 00:14:33;;;;;;;2.40;1.43;;;20.60;7.30;;;;;;4952169;29;20525;-90
2022/08/15 00:17:01;;;;;;;1.70;1.10;;;20.50;71.80;;;;;;4968481;28;20445;-90
2022/08/15 00:19:29;;;;;;;2.03;1.50;;;20.50;57.20;;;;;;4954628;28;20474;-92
2022/08/15 00:22:04;;;;;;;1.33;1.20;;;20.40;61.70;;;;;;4956510;28;20420;-90
2022/08/15 00:24:32;;;;;;;1.93;1.00;;;20.40;94.40;;;;;;4973914;28;20950;-90
2022/08/15 00:27:00;;;;;;;2.27;1.37;;;20.30;99.90;;;;;;4958970;28;21017;-92
2022/08/15 00:29:28;;;;;;;2.20;0.93;;;20.20;99.90;;;;;;4957729;28;21210;-91
2022/08/15 00:31:54;;;;;;;6.53;1.03;;;20.30;99.90;;;;;;4942572;29;20425;-90
2022/08/15 00:34:24;;;;;;;1.30;0.80;;;20.20;99.90;;;;;;4974464;28;20433;-94
2022/08/15 00:36:51;;;;;;;1.10;0.63;;;20.10;99.90;;;;;;4986252;28;20184;-95
2022/08/15 00:39:25;;;;;;;1.60;0.90;;;20.00;99.90;;;;;;4970625;28;20536;-93
2022/08/15 00:41:51;;;;;;;1.30;1.03;;;20.00;99.90;;;;;;4979827;28;20416;-96
2022/08/15 00:44:34;;;;;;;3.90;1.60;;;20.00;99.90;;;;;;4967290;28;20436;-94
2022/08/15 00:47:07;;;;;;;1.90;1.20;;;20.10;99.90;;;;;;4984966;28;20451;-94
2022/08/15 00:49:34;;;;;;;1.80;1.23;;;20.10;99.90;;;;;;4982778;28;20459;-94
2022/08/15 00:52:26;;;;;;;1.63;0.87;;;20.10;99.90;;;;;;4978306;28;20471;-94
2022/08/15 00:55:08;;;;;;;2.33;0.93;;;20.10;99.90;;;;;;4985388;28;20427;-94
2022/08/15 00:57:37;;;;;;;2.17;1.13;;;19.90;99.90;;;;;;4975754;28;20416;-93
2022/08/15 01:00:17;;;;;;;1.70;0.93;;;19.80;99.90;;;;;;4962385;28;20494;-93
2022/08/15 01:02:44;;;;;;;4.77;1.67;;;19.70;99.90;;;;;;4958342;28;20416;-93
2022/08/15 01:05:11;;;;;;;1.30;1.13;;;19.70;99.90;;;;;;4955556;28;20774;-94
2022/08/15 01:07:38;;;;;;;1.23;1.10;;;19.60;99.90;;;;;;4958458;28;20431;-93
2022/08/15 01:10:05;;;;;;;4.47;1.73;;;19.50;99.90;;;;;;4944869;28;20755;-94
2022/08/15 01:12:32;;;;;;;2.30;1.03;;;19.50;99.90;;;;;;4958286;28;20424;-94
2022/08/15 01:15:03;;;;;;;2.07;1.20;;;19.50;99.90;;;;;;4958506;28;20459;-94
2022/08/15 01:17:30;;;;;;;1.93;1.40;;;19.40;99.90;;;;;;4956806;28;20789;-93
2022/08/15 01:20:11;;;;;;;1.30;0.80;;;19.40;99.90;;;;;;4944932;29;20530;-94
2022/08/15 01:22:56;;;;;;;1.73;1.37;;;19.30;99.90;;;;;;4974473;28;20418;-93
2022/08/15 01:25:38;;;;;;;1.30;1.00;;;19.30;99.90;;;;;;4974548;28;20921;-93
2022/08/15 01:28:27;;;;;;;2.13;1.50;;;19.30;99.90;;;;;;4955040;28;20431;-94
2022/08/15 01:31:06;;;;;;;1.73;1.27;;;19.20;99.90;;;;;;4955399;28;20429;-94
2022/08/15 01:33:38;;;;;;;2.83;1.83;;;19.10;99.90;;;;;;4963857;28;20422;-94
2022/08/15 01:36:05;;;;;;;1.60;1.30;;;19.10;99.90;;;;;;4974510;28;20417;-94
2022/08/15 01:38:41;;;;;;;3.30;1.20;;;19.00;99.90;;;;;;4974339;28;20460;-93
2022/08/15 01:41:19;;;;;;;5.07;1.40;;;19.00;99.90;;;;;;4974387;28;20474;-93
2022/08/15 01:44:06;;;;;;;1.27;0.90;;;19.00;99.90;;;;;;4958008;28;20416;-93
2022/08/15 01:46:37;;;;;;;1.37;0.70;;;19.00;99.90;;;;;;4954659;28;20436;-93
2022/08/15 01:49:10;;;;;;;2.27;1.07;;;19.00;99.90;;;;;;4947353;29;20460;-93
2022/08/15 01:51:36;;;;;;;1.60;1.50;;;19.00;99.90;;;;;;4959581;28;20481;-93
2022/08/15 01:54:17;;;;;;;2.67;1.40;;;18.90;99.90;;;;;;4961973;28;20835;-93
2022/08/15 01:56:45;;;;;;;1.50;0.80;;;18.90;99.90;;;;;;4963359;28;20653;-94
2022/08/15 01:59:16;;;;;;;2.23;1.40;;;18.90;99.90;;;;;;4951155;28;20468;-93
2022/08/15 02:01:56;;;;;;;2.07;1.43;;;18.80;99.90;;;;;;4943073;29;20416;-94
2022/08/15 02:04:28;;;;;;;1.90;1.63;;;18.60;99.90;;;;;;4947241;29;20475;-94
2022/08/15 02:06:55;;;;;;;2.53;1.23;;;18.60;99.90;;;;;;4947948;29;20852;-93
2022/08/15 02:09:21;;;;;;;2.30;1.20;;;18.60;99.90;;;;;;4967502;28;20416;-94
2022/08/15 02:11:48;;;;;;;2.10;1.30;;;18.60;99.90;;;;;;4958763;28;20575;-94
2022/08/15 02:14:15;;;;;;;1.97;1.60;;;18.50;99.90;;;;;;4959677;28;20176;-94
2022/08/15 02:16:42;;;;;;;1.57;1.10;;;18.50;99.90;;;;;;4960111;28;20475;-91
2022/08/15 02:19:11;;;;;;;3.00;2.07;;;18.50;99.90;;;;;;4961104;28;21025;-93
2022/08/15 02:21:39;;;;;;;2.23;1.40;;;18.40;99.90;;;;;;4962270;28;20423;-92
2022/08/15 02:24:09;;;;;;;1.50;1.40;;;18.40;99.90;;;;;;4959342;29;20952;-93
2022/08/15 02:26:35;;;;;;;2.93;0.77;;;18.30;99.90;;;;;;4964676;28;20769;-93
2022/08/15 02:29:01;;;;;;;3.03;0.93;;;18.30;99.90;;;;;;4942845;28;20431;-93
2022/08/15 02:31:29;;;;;;;1.67;0.70;;;18.30;99.90;;;;;;4939429;29;20433;-93
2022/08/15 02:34:00;;;;;;;1.43;0.83;;;18.20;99.90;;;;;;4941552;28;20428;-95
2022/08/15 02:36:31;;;;;;;2.07;1.03;;;18.20;99.90;;;;;;4958233;23;21012;-96
2022/08/15 02:38:58;;;;;;;1.63;0.87;;;18.20;99.90;;;;;;4930548;29;20462;-94
2022/08/15 02:41:51;;;;;;;1.50;0.97;;;18.10;99.90;;;;;;4945121;29;20422;-95
2022/08/15 02:44:20;;;;;;;1.83;1.23;;;18.10;99.90;;;;;;4913487;29;20493;-95
2022/08/15 02:46:45;;;;;;;3.67;1.73;;;18.10;99.90;;;;;;4917778;29;20428;-96
2022/08/15 02:49:12;;;;;;;1.77;1.37;;;18.10;99.90;;;;;;4934425;29;20459;-95
2022/08/15 02:51:42;;;;;;;1.80;1.30;;;18.00;99.90;;;;;;4934456;29;20208;-95
2022/08/15 02:54:10;;;;;;;2.20;1.33;;;18.00;99.90;;;;;;4912396;29;20517;-95
2022/08/15 02:56:35;;;;;;;3.17;1.33;;;18.00;99.90;;;;;;4917272;29;20754;-94
2022/08/15 02:59:03;;;;;;;1.93;1.10;;;18.10;99.90;;;;;;4934129;29;20535;-95
2022/08/15 03:01:29;;;;;;;3.20;1.50;;;18.00;99.90;;;;;;4909002;29;20448;-94
2022/08/15 03:03:56;;;;;;;1.63;1.30;;;18.00;99.90;;;;;;4899558;29;20440;-94
2022/08/15 03:06:30;;;;;;;5.80;2.10;;;18.10;99.90;;;;;;4912525;29;20503;-94
2022/08/15 03:09:00;;;;;;;2.67;1.10;;;18.00;99.90;;;;;;4918455;29;20467;-94
2022/08/15 03:11:26;;;;;;;2.40;1.70;;;18.00;99.90;;;;;;4920837;29;20511;-94
2022/08/15 03:13:53;;;;;;;1.40;1.20;;;18.00;99.90;;;;;;4924540;29;20470;-94
2022/08/15 03:16:18;;;;;;;2.17;1.33;;;18.00;99.90;;;;;;4920111;29;20433;-94
2022/08/15 03:18:44;;;;;;;2.90;1.70;;;18.00;99.90;;;;;;4919570;29;20481;-93
2022/08/15 03:21:13;;;;;;;1.90;1.63;;;18.00;99.90;;;;;;4921138;29;20696;-94
2022/08/15 03:23:48;;;;;;;2.60;1.57;;;17.90;99.90;;;;;;4919592;29;20187;-95
2022/08/15 03:26:15;;;;;;;1.73;1.47;;;17.90;99.90;;;;;;4918902;29;20529;-94
2022/08/15 03:28:40;;;;;;;2.33;0.80;;;17.90;99.90;;;;;;4918152;29;20436;-93
2022/08/15 03:31:06;;;;;;;2.03;1.50;;;17.90;99.90;;;;;;4919222;29;20926;-95
2022/08/15 03:33:34;;;;;;;3.33;1.50;;;17.90;99.90;;;;;;4918831;29;20209;-95
2022/08/15 03:36:00;;;;;;;2.53;1.60;;;17.90;99.90;;;;;;4917547;29;20543;-94
2022/08/15 03:38:26;;;;;;;2.10;1.47;;;17.90;99.90;;;;;;4917592;29;20478;-94
2022/08/15 03:40:53;;;;;;;2.40;1.13;;;17.80;99.90;;;;;;4917919;29;20313;-92
2022/08/15 03:43:28;;;;;;;2.43;1.60;;;17.80;99.90;;;;;;4917977;29;20234;-93
2022/08/15 03:46:05;;;;;;;2.00;1.77;;;17.70;99.90;;;;;;4917683;29;20427;-94
2022/08/15 03:48:37;;;;;;;2.10;2.00;;;17.70;99.90;;;;;;4918180;29;20416;-94
2022/08/15 03:51:03;;;;;;;2.23;1.70;;;17.70;99.90;;;;;;4917624;29;20457;-93
2022/08/15 03:53:36;;;;;;;2.57;1.70;;;17.70;99.90;;;;;;4917948;29;20933;-92
2022/08/15 03:56:03;;;;;;;3.00;1.53;;;17.70;99.90;;;;;;4917795;29;20421;-93
2022/08/15 03:58:30;;;;;;;3.13;2.07;;;17.70;99.90;;;;;;4917753;29;20424;-92
2022/08/15 04:00:58;;;;;;;2.07;1.40;;;17.70;99.90;;;;;;4917450;29;20434;-92
2022/08/15 04:03:28;;;;;;;2.37;2.17;;;17.70;99.90;;;;;;4917700;29;20433;-92
2022/08/15 04:05:57;;;;;;;3.37;1.90;;;17.70;99.90;;;;;;4917655;29;20477;-92
2022/08/15 04:08:25;;;;;;;2.57;2.20;;;17.70;99.90;;;;;;4917955;29;20558;-92
2022/08/15 04:10:53;;;;;;;1.77;1.40;;;17.70;99.90;;;;;;4918492;29;20444;-92
2022/08/15 04:13:24;;;;;;;1.80;1.30;;;17.60;99.90;;;;;;4917978;29;20441;-93
2022/08/15 04:15:50;;;;;;;1.87;1.77;;;17.60;99.90;;;;;;4917041;29;20519;-93
2022/08/15 04:18:16;;;;;;;2.20;1.47;;;17.50;99.90;;;;;;4917977;29;20424;-92
2022/08/15 04:20:42;;;;;;;2.17;1.90;;;17.50;99.90;;;;;;4917610;29;20526;-92
2022/08/15 04:23:08;;;;;;;2.23;1.77;;;17.50;99.90;;;;;;4918965;29;20183;-93
2022/08/15 04:25:37;;;;;;;3.00;1.47;;;17.70;99.90;;;;;;4917396;29;20180;-92
2022/08/15 04:28:04;;;;;;;3.00;2.57;;;17.70;99.90;;;;;;4917772;29;20294;-94
2022/08/15 04:30:34;;;;;;;1.97;1.57;;;17.60;99.90;;;;;;4917485;29;20424;-92
2022/08/15 04:33:16;;;;;;;2.60;1.40;;;17.70;99.90;;;;;;4917448;29;20418;-91
2022/08/15 04:35:51;;;;;;;2.50;2.20;;;17.60;99.90;;;;;;4919803;29;20427;-93
2022/08/15 04:38:17;;;;;;;1.33;1.20;;;17.60;99.90;;;;;;4936817;29;20536;-93
2022/08/15 04:40:44;;;;;;;3.17;2.50;;;17.60;99.90;;;;;;4921755;29;20479;-93
2022/08/15 04:43:10;;;;;;;3.50;2.00;;;17.70;99.90;;;;;;4920476;29;20764;-96
2022/08/15 04:45:38;;;;;;;2.50;1.90;;;17.80;99.90;;;;;;4920207;29;20426;-94
2022/08/15 04:48:04;;;;;;;2.13;1.70;;;18.00;99.90;;;;;;4920474;29;20181;-95
2022/08/15 04:50:38;;;;;;;1.60;1.20;;;18.10;99.90;;;;;;4920282;29;20520;-96
2022/08/15 04:53:05;;;;;;;3.17;1.97;;;18.10;99.90;;;;;;4920707;29;20451;-93
2022/08/15 04:55:30;;;;;;;2.33;1.50;;;18.10;99.90;;;;;;4920658;29;20459;-96
2022/08/15 04:57:57;;;;;;;3.50;2.00;;;18.20;99.90;;;;;;4920705;29;20428;-95
2022/08/15 05:00:27;;;;;;;3.07;2.00;;;18.50;99.90;;;;;;4920526;29;20215;-95
2022/08/15 05:03:03;;;;;;;3.07;2.73;;;18.80;99.90;;;;;;4921694;29;20928;-93
2022/08/15 05:05:31;;;;;;;1.90;1.60;;;18.90;99.90;;;;;;4938326;29;20438;-95
2022/08/15 05:07:58;;;;;;;2.40;1.93;;;19.00;99.90;;;;;;4921789;29;20461;-94
2022/08/15 05:10:24;;;;;;;2.57;2.33;;;19.10;99.90;;;;;;4924045;29;20424;-93
2022/08/15 05:12:49;;;;;;;2.30;2.07;;;19.30;99.90;;;;;;4924552;29;20434;-94
2022/08/15 05:15:17;;;;;;;3.10;1.50;;;19.40;99.90;;;;;;4925130;29;20178;-93
2022/08/15 05:17:45;;;;;;;2.40;1.67;;;19.40;99.90;;;;;;4924188;29;20177;-92
2022/08/15 05:20:12;;;;;;;2.10;1.60;;;19.50;99.90;;;;;;4924920;29;20823;-96
2022/08/15 05:22:54;;;;;;;3.70;1.53;;;19.60;99.90;;;;;;4924506;29;20420;-94
2022/08/15 05:25:20;;;;;;;1.77;1.67;;;19.60;99.90;;;;;;4925413;29;20454;-95
2022/08/15 05:27:47;;;;;;;2.13;1.80;;;19.70;99.90;;;;;;4924387;29;20408;-93
2022/08/15 05:30:13;;;;;;;2.47;2.27;;;19.80;99.90;;;;;;4923726;29;20793;-93
2022/08/15 05:32:39;;;;;;;2.27;1.40;;;20.00;99.90;;;;;;4923949;29;20413;-94
2022/08/15 05:35:06;;;;;;;2.83;1.60;;;20.20;99.90;;;;;;4941045;29;20667;-94
2022/08/15 05:37:32;;;;;;;4.17;1.87;;;20.40;99.90;;;;;;4925754;29;20598;-95
2022/08/15 05:39:58;;;;;;;3.13;2.80;;;20.80;99.90;;;;;;4926176;29;20492;-90
2022/08/15 05:42:54;;;;;;;2.53;2.33;;;21.20;11.00;;;;;;4920958;29;20548;-93
2022/08/15 05:45:35;;;;;;;2.23;1.97;;;21.60;1.00;;;;;;4932427;29;20216;-93
2022/08/15 05:48:14;;;;;;;4.17;2.70;;;22.10;1.00;;;;;;4938747;29;20432;-93
2022/08/15 05:50:53;;;;;;;3.03;2.73;;;22.50;99.90;;;;;;4938650;29;20812;-89
2022/08/15 05:53:36;;;;;;;2.43;2.23;;;22.70;99.90;;;;;;4938317;29;20423;-88
2022/08/15 05:56:30;;;;;;;3.00;2.70;;;22.70;99.90;;;;;;4938093;29;20477;-89
2022/08/15 05:59:07;;;;;;;3.73;2.10;;;23.00;84.80;;;;;;4938602;29;20661;-91
2022/08/15 06:01:44;;;;;;;4.07;2.67;;;23.50;99.90;;;;;;4945943;29;20428;-93
2022/08/15 06:04:30;;;;;;;2.70;2.40;;;23.90;99.90;;;;;;4960889;28;20416;-93
2022/08/15 06:06:56;;;;;;;2.80;2.60;;;24.40;1.00;;;;;;4939046;29;20455;-94
2022/08/15 06:09:24;;;;;;;3.37;2.70;;;24.90;10.60;;;;;;4952507;29;20449;-93
2022/08/15 06:11:53;;;;;;;3.40;2.53;;;25.50;1.00;;;;;;4927191;29;20212;-93
2022/08/15 06:14:30;;;;;;;4.30;2.60;;;25.70;1.00;;;;;;4939323;29;20417;-94
2022/08/15 06:17:02;;;;;;;4.40;2.57;;;25.90;99.90;;;;;;4924147;29;20424;-95
2022/08/15 06:19:42;;;;;;;2.63;2.43;;;26.40;99.90;;;;;;4939316;29;20515;-93
2022/08/15 06:22:33;;;;;;;2.13;1.80;;;26.80;99.90;;;;;;4937836;29;20496;-92
2022/08/15 06:25:21;;;;;;;3.40;3.10;;;27.40;99.90;;;;;;4939207;29;20429;-94
2022/08/15 06:28:05;;;;;;;2.60;2.37;;;28.40;99.90;;;;;;4921484;29;20426;-92
2022/08/15 06:30:42;;;;;;;2.40;2.20;;;28.50;98.30;;;;;;4936250;29;20532;-94
2022/08/15 06:33:43;;;;;;;3.40;3.10;;;28.70;80.90;;;;;;4939596;29;20417;-91
2022/08/15 06:36:17;;;;;;;4.97;3.00;;;28.90;48.00;;;;;;4907334;29;20483;-88
2022/08/15 06:39:04;;;;;;;3.30;3.00;;;28.90;54.20;;;;;;4939276;29;20516;-89
2022/08/15 06:42:01;;;;;;;3.67;3.37;;;29.10;51.10;;;;;;4937946;29;20470;-90
2022/08/15 06:44:27;;;;;;;3.43;3.13;;;29.50;34.40;;;;;;4938427;29;20430;-90
2022/08/15 06:46:56;;;;;;;2.83;2.60;;;30.20;21.20;;;;;;4940157;29;20424;-91
2022/08/15 06:49:23;;;;;;;2.87;2.67;;;30.30;17.10;;;;;;4939090;29;20422;-92
2022/08/15 06:51:49;;;;;;;4.43;3.40;;;31.00;10.90;;;;;;4940938;29;20418;-95
2022/08/15 06:54:26;;;;;;;6.47;3.90;;;31.30;11.40;;;;;;4939265;29;20496;-95
2022/08/15 06:57:08;;;;;;;3.37;3.07;;;30.90;1.00;;;;;;4937860;29;20425;-95
2022/08/15 06:59:59;;;;;;;2.83;2.40;;;30.30;1.00;;;;;;4932904;29;20461;-93
2022/08/15 07:02:35;;;;;;;3.50;3.20;;;29.70;1.00;;;;;;4959044;28;20416;-92
2022/08/15 07:05:24;;;;;;;6.10;3.23;;;29.60;3.30;;;;;;4957561;29;20453;-91
2022/08/15 07:08:19;;;;;;;3.63;3.20;;;30.00;1.00;;;;;;4939655;29;20418;-92
2022/08/15 07:10:50;;;;;;;5.70;3.57;;;30.10;1.60;;;;;;4924038;29;20440;-93
2022/08/15 07:13:20;;;;;;;3.43;3.13;;;30.40;1.00;;;;;;4939489;29;20425;-94
2022/08/15 07:15:58;;;;;;;3.90;2.80;;;31.30;1.00;;;;;;4938747;29;20437;-93
2022/08/15 07:18:36;;;;;;;3.20;2.90;;;32.10;1.00;;;;;;4938656;29;20426;-96
2022/08/15 07:21:07;;;;;;;3.03;2.63;;;31.80;1.00;;;;;;4939038;29;20445;-94
2022/08/15 07:23:35;;;;;;;5.17;3.40;;;32.10;1.00;;;;;;4941652;29;20899;-92
2022/08/15 07:26:12;;;;;;;2.40;2.20;;;31.90;1.00;;;;;;4939029;29;20437;-91
2022/08/15 07:28:43;;;;;;;3.00;2.70;;;32.70;1.00;;;;;;4939220;29;20435;-92
2022/08/15 07:31:18;;;;;;;3.60;3.23;;;32.60;1.00;;;;;;4938732;29;20505;-92
2022/08/15 07:33:45;;;;;;;3.40;2.70;;;32.50;1.00;;;;;;4922694;29;20405;-92
2022/08/15 07:36:23;;;;;;;4.13;3.50;;;33.10;1.00;;;;;;4922552;29;20469;-90
2022/08/15 07:38:50;;;;;;;3.27;2.97;;;33.10;1.00;;;;;;4922950;29;20461;-91
2022/08/15 07:41:30;;;;;;;3.20;2.90;;;33.40;1.00;;;;;;4923905;29;20433;-91
2022/08/15 07:44:27;;;;;;;2.77;2.57;;;33.40;1.00;;;;;;4924191;29;20783;-92
2022/08/15 07:47:01;;;;;;;3.47;3.17;;;33.60;1.00;;;;;;4937385;29;20905;-92
2022/08/15 07:49:34;;;;;;;3.47;3.17;;;34.00;1.00;;;;;;4922691;29;20946;-91
2022/08/15 07:52:15;;;;;;;3.60;3.30;;;34.30;1.00;;;;;;4923093;29;20422;-94
2022/08/15 07:54:51;;;;;;;8.03;3.83;;;34.40;1.00;;;;;;4941864;29;21026;-94
2022/08/15 07:57:34;;;;;;;3.33;3.03;;;33.60;1.00;;;;;;4925479;29;20427;-91
2022/08/15 08:00:09;;;;;;;3.87;3.57;;;34.00;1.00;;;;;;4925879;29;20473;-94
2022/08/15 08:02:53;;;;;;;5.17;3.03;;;33.60;1.00;;;;;;4923666;29;20746;-93
2022/08/15 08:05:23;;;;;;;3.77;3.07;;;34.20;1.00;;;;;;4924542;29;20413;-92
2022/08/15 08:07:50;;;;;;;3.93;3.63;;;34.30;1.00;;;;;;4923141;29;20425;-92
2022/08/15 08:10:23;;;;;;;3.77;3.23;;;34.80;1.00;;;;;;4923030;29;20452;-92
2022/08/15 08:13:28;;;;;;;3.50;3.20;;;34.50;1.00;;;;;;4939352;29;20441;-95
2022/08/15 08:16:07;;;;;;;3.63;3.43;;;34.50;1.00;;;;;;4939916;29;20422;-91
2022/08/15 08:18:50;;;;;;;3.83;3.53;;;33.40;1.00;;;;;;4941868;29;20549;-92
2022/08/15 08:21:36;;;;;;;3.60;3.30;;;33.10;1.00;;;;;;4925067;29;20434;-94
2022/08/15 08:24:22;;;;;;;3.80;3.50;;;33.50;1.00;;;;;;4940185;29;20504;-89
2022/08/15 08:27:00;;;;;;;3.57;3.27;;;32.90;1.00;;;;;;4940651;29;20406;-93
2022/08/15 08:29:38;;;;;;;4.07;3.67;;;34.20;1.00;;;;;;4923999;29;20461;-92
2022/08/15 08:32:20;;;;;;;3.90;3.50;;;34.00;1.00;;;;;;4923622;29;20452;-92
2022/08/15 08:35:21;;;;;;;3.50;2.97;;;33.90;1.00;;;;;;4934028;29;20418;-91
2022/08/15 08:38:15;;;;;;;4.30;3.63;;;34.30;1.00;;;;;;4903841;29;20464;-93
2022/08/15 08:44:34;;;;;;;3.60;3.30;;;35.40;1.00;;;;;;4936107;29;20416;-92
2022/08/15 08:47:34;;;;;;;3.13;2.90;;;34.30;1.00;;;;;;4898802;29;20421;-92
2022/08/15 08:50:14;;;;;;;3.77;3.30;;;34.30;1.00;;;;;;4940425;29;20446;-91
2022/08/15 08:52:58;;;;;;;3.03;2.80;;;34.50;1.00;;;;;;4925848;29;20465;-91
2022/08/15 08:55:30;;;;;;;4.33;3.80;;;34.70;1.00;;;;;;4941685;29;20433;-91
2022/08/15 08:58:07;;;;;;;4.27;3.97;;;34.30;1.00;;;;;;4942282;29;20824;-92
2022/08/15 09:00:41;;;;;;;4.00;3.70;;;33.90;1.00;;;;;;4928584;29;21018;-92
2022/08/15 09:03:12;;;;;;;3.83;3.53;;;35.10;1.00;;;;;;4928736;29;20758;-93
2022/08/15 09:05:51;;;;;;;4.07;3.70;;;36.20;1.00;;;;;;4927769;29;20437;-93
2022/08/15 09:08:41;;;;;;;4.47;4.03;;;35.90;1.00;;;;;;4927421;29;20413;-90
2022/08/15 09:11:22;;;;;;;4.37;3.97;;;35.40;1.00;;;;;;4925423;29;20414;-88
2022/08/15 09:13:49;;;;;;;4.00;3.70;;;34.70;1.00;;;;;;4924980;29;20949;-88
2022/08/15 09:16:23;;;;;;;4.40;3.90;;;34.20;1.00;;;;;;4941044;29;20414;-91
2022/08/15 09:19:15;;;;;;;5.40;3.63;;;34.40;1.00;;;;;;4922611;29;20447;-93
2022/08/15 09:21:42;;;;;;;3.50;3.20;;;35.00;1.00;;;;;;4922742;29;20970;-93
2022/08/15 09:24:09;;;;;;;3.83;3.53;;;35.20;1.00;;;;;;4923524;29;20426;-91
2022/08/15 09:27:00;;;;;;;3.40;3.10;;;36.00;1.00;;;;;;4905108;29;20796;-92
2022/08/15 09:29:36;;;;;;;4.03;3.63;;;35.90;1.00;;;;;;4905654;29;20946;-94
2022/08/15 09:32:30;;;;;;;4.20;3.90;;;36.50;1.00;;;;;;4920438;29;20421;-92
2022/08/15 09:35:17;;;;;;;5.70;3.70;;;36.30;1.00;;;;;;4920630;29;20430;-91
2022/08/15 09:38:07;;;;;;;4.13;3.73;;;35.40;1.00;;;;;;4920937;29;20529;-91
2022/08/15 09:40:49;;;;;;;3.10;2.80;;;35.00;1.00;;;;;;4921675;29;20466;-91
2022/08/15 09:43:25;;;;;;;4.53;3.80;;;36.30;1.00;;;;;;4904208;29;20462;-93
2022/08/15 09:46:17;;;;;;;4.20;3.50;;;37.00;1.00;;;;;;4903726;29;20421;-91
2022/08/15 09:49:17;;;;;;;4.13;3.67;;;37.30;1.00;;;;;;4903628;29;20506;-90
2022/08/15 09:51:49;;;;;;;4.53;4.13;;;36.90;1.00;;;;;;4901029;29;20487;-91
2022/08/15 09:54:21;;;;;;;4.33;4.00;;;37.30;1.00;;;;;;4904861;29;20422;-93
2022/08/15 09:56:48;;;;;;;3.90;3.40;;;36.40;1.00;;;;;;4903232;29;20458;-92
2022/08/15 09:59:25;;;;;;;4.23;3.93;;;37.10;1.00;;;;;;4903532;29;20520;-92
2022/08/15 10:02:00;;;;;;;4.50;4.10;;;37.10;1.00;;;;;;4903240;29;20474;-94
2022/08/15 10:04:44;;;;;;;4.83;4.07;;;35.60;1.00;;;;;;4905480;29;20883;-91
2022/08/15 10:07:12;;;;;;;4.13;3.80;;;36.10;1.00;;;;;;4903771;29;20780;-92
2022/08/15 10:10:00;;;;;;;4.40;4.00;;;35.40;1.00;;;;;;4904194;29;20850;-90
2022/08/15 10:12:26;;;;;;;3.80;3.30;;;34.90;1.00;;;;;;4905507;29;20419;-92
2022/08/15 10:14:52;;;;;;;4.13;3.73;;;35.80;1.00;;;;;;4904260;29;20423;-91
2022/08/15 10:17:44;;;;;;;3.57;3.27;;;36.60;1.00;;;;;;4903171;29;20936;-93
2022/08/15 10:20:15;;;;;;;3.90;3.57;;;36.80;1.00;;;;;;4934597;29;20245;-95
2022/08/15 10:22:48;;;;;;;4.33;3.97;;;37.00;1.00;;;;;;4924147;29;20431;-93
2022/08/15 10:25:17;;;;;;;3.33;3.13;;;37.40;1.00;;;;;;4922122;29;20425;-93
2022/08/15 10:28:18;;;;;;;4.47;4.17;;;38.20;1.00;;;;;;4924113;29;20520;-92
2022/08/15 10:31:01;;;;;;;3.43;3.23;;;37.90;1.00;;;;;;4937464;29;20405;-94
2022/08/15 10:33:33;;;;;;;4.63;4.00;;;38.30;1.00;;;;;;4921896;29;20436;-92
2022/08/15 10:36:13;;;;;;;3.93;3.60;;;39.10;1.00;;;;;;4921576;29;20465;-90
2022/08/15 10:39:18;;;;;;;4.47;4.10;;;38.40;1.00;;;;;;4921210;29;20794;-93
2022/08/15 10:42:28;;;;;;;4.00;3.70;;;37.80;1.00;;;;;;4921336;29;20432;-93
2022/08/15 10:45:20;;;;;;;4.00;3.70;;;37.20;1.00;;;;;;4930321;29;20527;-94
2022/08/15 10:48:10;;;;;;;3.70;3.50;;;36.70;1.00;;;;;;4907048;29;20422;-93
2022/08/15 10:50:51;;;;;;;4.53;4.23;;;37.30;1.00;;;;;;4909854;29;20497;-90
2022/08/15 10:53:34;;;;;;;4.63;4.33;;;37.70;1.00;;;;;;4918132;29;20430;-93
2022/08/15 10:56:13;;;;;;;3.67;3.47;;;38.20;1.00;;;;;;4928214;29;20435;-93
2022/08/15 10:58:39;;;;;;;3.95;3.75;;;38.40;1.00;;;;;;4921607;29;20922;-92
2022/08/15 11:01:31;;;;;;;3.28;3.08;;;38.50;1.00;;;;;;4937810;29;20420;-93
2022/08/15 11:04:05;;;;;;;3.50;3.30;;;38.50;1.00;;;;;;4924857;29;20189;-90
2022/08/15 11:06:47;;;;;;;3.80;3.50;;;37.50;1.00;;;;;;4939786;29;20413;-90
2022/08/15 11:09:17;;;;;;;3.63;3.43;;;37.40;1.00;;;;;;4938997;29;20433;-91
2022/08/15 11:11:53;;;;;;;3.53;3.27;;;37.80;1.00;;;;;;4923802;29;20432;-95
2022/08/15 11:14:24;;;;;;;3.43;3.23;;;37.80;1.00;;;;;;4920879;29;20429;-94
2022/08/15 11:16:52;;;;;;;3.90;3.60;;;38.50;1.00;;;;;;4922025;29;20853;-94
2022/08/15 11:19:28;;;;;;;5.77;4.13;;;35.80;1.00;;;;;;4938641;29;20452;-93
2022/08/15 11:22:02;;;;;;;6.30;3.37;;;36.50;1.00;;;;;;4921139;29;20460;-94
2022/08/15 11:24:39;;;;;;;3.70;3.50;;;37.30;1.00;;;;;;4922406;29;20488;-93
2022/08/15 11:27:17;;;;;;;3.40;3.20;;;38.00;1.00;;;;;;4921340;29;20425;-94
2022/08/15 11:29:46;;;;;;;4.10;3.70;;;38.20;1.00;;;;;;4922758;29;20922;-93
2022/08/15 11:32:24;;;;;;;3.20;3.00;;;38.30;1.00;;;;;;4920470;29;20521;-93
2022/08/15 11:34:51;;;;;;;3.78;3.58;;;38.50;1.00;;;;;;4924892;29;20200;-94
2022/08/15 11:37:29;;;;;;;3.97;3.77;;;38.10;1.00;;;;;;4905456;29;20258;-92
2022/08/15 11:39:58;;;;;;;4.17;3.87;;;37.30;1.00;;;;;;4935266;28;20436;-92
2022/08/15 11:42:25;;;;;;;3.80;3.60;;;37.90;1.00;;;;;;4911666;29;20433;-91
2022/08/15 11:44:56;;;;;;;2.80;2.60;;;37.70;1.00;;;;;;4918404;29;20429;-93
2022/08/15 11:47:23;;;;;;;3.50;3.20;;;36.30;1.00;;;;;;4916377;29;20461;-88
2022/08/15 11:49:54;;;;;;;2.80;2.60;;;37.30;1.00;;;;;;4926494;29;20472;-93
2022/08/15 11:52:29;;;;;;;4.80;3.40;;;37.40;1.00;;;;;;4925353;29;20422;-93
2022/08/15 11:55:18;;;;;;;3.70;3.40;;;36.60;1.00;;;;;;4920715;29;20453;-91
2022/08/15 11:57:50;;;;;;;4.07;3.80;;;36.80;1.00;;;;;;4934760;29;20801;-92
2022/08/15 12:00:24;;;;;;;3.30;3.10;;;36.60;1.00;;;;;;4920696;29;20516;-93
2022/08/15 12:02:49;;;;;;;4.77;4.33;;;35.40;1.00;;;;;;4932429;29;20432;-93
2022/08/15 12:05:25;;;;;;;3.80;3.30;;;36.30;1.00;;;;;;4920547;29;20505;-91
2022/08/15 12:07:56;;;;;;;3.50;3.20;;;37.00;1.00;;;;;;4920482;29;20180;-92
2022/08/15 12:10:32;;;;;;;3.40;3.20;;;37.60;1.00;;;;;;4920770;29;20472;-89
2022/08/15 12:12:59;;;;;;;3.70;3.50;;;38.00;1.00;;;;;;4922948;29;20421;-93
2022/08/15 12:15:39;;;;;;;4.27;3.90;;;37.50;1.00;;;;;;4923346;29;20421;-93
2022/08/15 12:18:23;;;;;;;5.90;4.00;;;36.20;1.00;;;;;;4919928;29;20420;-94
2022/08/15 12:20:55;;;;;;;3.67;3.37;;;36.90;1.00;;;;;;4934847;29;20964;-91
2022/08/15 12:23:52;;;;;;;3.50;3.20;;;37.40;1.00;;;;;;4936901;29;20509;-93
2022/08/15 12:26:20;;;;;;;3.17;2.97;;;37.80;1.00;;;;;;4920878;29;20425;-94
2022/08/15 12:28:46;;;;;;;3.90;3.57;;;37.50;1.00;;;;;;4920677;29;20467;-93
2022/08/15 12:31:26;;;;;;;3.83;3.10;;;36.10;1.00;;;;;;4919898;29;20520;-93
2022/08/15 12:34:09;;;;;;;3.87;3.57;;;34.90;1.00;;;;;;4920971;29;20424;-92
2022/08/15 12:36:34;;;;;;;4.87;3.20;;;35.70;1.00;;;;;;4919528;29;20461;-93
2022/08/15 12:39:00;;;;;;;3.87;3.57;;;36.60;1.00;;;;;;4919483;29;20441;-90
2022/08/15 12:41:26;;;;;;;3.47;3.17;;;37.00;1.00;;;;;;4935772;29;20268;-93
2022/08/15 12:43:52;;;;;;;3.90;3.60;;;37.50;1.00;;;;;;4920317;29;20256;-91
2022/08/15 12:46:18;;;;;;;4.67;4.30;;;37.70;1.00;;;;;;4935127;29;21014;-93
2022/08/15 12:48:46;;;;;;;3.83;3.53;;;37.20;1.00;;;;;;4919759;29;20268;-93
2022/08/15 12:51:13;;;;;;;4.55;4.05;;;37.80;1.00;;;;;;4937349;29;20439;-94
2022/08/15 12:53:38;;;;;;;3.97;3.67;;;38.20;1.00;;;;;;4920465;29;20838;-94
2022/08/15 12:56:07;;;;;;;4.45;4.07;;;38.30;1.00;;;;;;4922371;29;20181;-92
2022/08/15 12:58:33;;;;;;;3.90;3.63;;;38.20;1.00;;;;;;4936761;29;20169;-91
2022/08/15 13:01:00;;;;;;;4.72;4.32;;;38.10;1.00;;;;;;4918611;29;20228;-92
2022/08/15 13:03:28;;;;;;;4.53;4.13;;;37.70;1.00;;;;;;4937562;29;20561;-94
2022/08/15 13:06:25;;;;;;;4.63;4.43;;;37.70;1.00;;;;;;4923019;29;20264;-93
2022/08/15 13:08:50;;;;;;;4.50;4.20;;;37.90;1.00;;;;;;4919948;29;20181;-93
2022/08/15 13:11:17;;;;;;;4.50;4.13;;;38.10;1.00;;;;;;4920564;29;20184;-91
2022/08/15 13:13:43;;;;;;;4.22;4.00;;;38.10;1.00;;;;;;4937293;29;20225;-94
2022/08/15 13:16:09;;;;;;;4.88;4.47;;;38.30;1.00;;;;;;4924289;29;20585;-92
2022/08/15 13:18:36;;;;;;;4.35;4.05;;;37.20;1.00;;;;;;4937504;29;20205;-91
2022/08/15 13:23:51;;;;;;;3.43;3.20;;;36.00;1.00;;;;;;4940568;29;20176;-96
2022/08/15 13:26:18;;;;;;;3.43;3.13;;;34.80;1.00;;;;;;4940610;29;20425;-94
2022/08/15 13:28:46;;;;;;;3.70;3.40;;;33.90;1.00;;;;;;4929142;29;20421;-92
2022/08/15 13:31:14;;;;;;;4.33;4.00;;;33.60;1.00;;;;;;4925466;29;20524;-94
2022/08/15 13:33:41;;;;;;;3.70;3.40;;;33.30;1.00;;;;;;4922921;29;20508;-91
2022/08/15 13:36:10;;;;;;;3.20;2.90;;;34.10;1.00;;;;;;4924781;29;20843;-91